Aviation Digital Data Service (ADDS)

Output produced by METARs form (0630 UTC 11 February 2016)
found at http://aviationweather.gov/adds/metars/
 
KTOL 110522Z 1106/1206 30010KT P6SM SCT045 
     TEMPO 1111/1115 BKN035 
     FM111500 30009KT P6SM BKN035 
     FM111800 28008KT P6SM SCT035 
     FM112300 24004KT P6SM SCT035